X  Chiuso Dati meteorologici dell'aviazione (METAR)     EDDH Hamburg Helmut Schmidt Airport
Temperatura
16°C Temperatura
11°C Punto di rugiada
72% Umidità



Vento
21 KM/O
13 MPH
6 M/S
11 KTS



170°
Sud
Condizioni attuali

Chiaro Chiaro
Pressione 1015.92 (hPa) - 30 (inHg)
Visibilità 6.2 (miglio) - 10 (km)
Aeroporto
Codice-Aeroporto EDDH

Posizione: Hamburg Helmut Schmidt Airport
Distanza: 11 (km)

Metar:
EDDH 281250Z 17011KT CAVOK 16/11 Q1016 NOSIG

Ore: 28-10-2021 14:50 CEST